sensor_id;sensor_type;location;lat;lon;timestamp;pressure;altitude;pressure_sealevel;temperature
68952;BMP180;56000;51.146;17.112;2023-04-25T00:00:22;99280.00;;;9.70
68952;BMP180;56000;51.146;17.112;2023-04-25T00:03:15;99273.80;;;9.70
68952;BMP180;56000;51.146;17.112;2023-04-25T00:05:50;99267.20;;;9.70
68952;BMP180;56000;51.146;17.112;2023-04-25T00:08:24;99264.00;;;9.70
68952;BMP180;56000;51.146;17.112;2023-04-25T00:10:57;99264.40;;;9.70
68952;BMP180;56000;51.146;17.112;2023-04-25T00:13:30;99264.40;;;9.70
68952;BMP180;56000;51.146;17.112;2023-04-25T00:16:03;99265.00;;;9.70
68952;BMP180;56000;51.146;17.112;2023-04-25T00:18:37;99267.80;;;9.70
68952;BMP180;56000;51.146;17.112;2023-04-25T00:21:10;99272.60;;;9.64
68952;BMP180;56000;51.146;17.112;2023-04-25T00:23:43;99269.40;;;9.60
68952;BMP180;56000;51.146;17.112;2023-04-25T00:26:17;99265.00;;;9.60
68952;BMP180;56000;51.146;17.112;2023-04-25T00:28:50;99266.80;;;9.60
68952;BMP180;56000;51.146;17.112;2023-04-25T00:31:23;99270.00;;;9.60
68952;BMP180;56000;51.146;17.112;2023-04-25T00:33:56;99270.20;;;9.60
68952;BMP180;56000;51.146;17.112;2023-04-25T00:36:29;99274.00;;;9.58
68952;BMP180;56000;51.146;17.112;2023-04-25T00:39:03;99276.20;;;9.50
68952;BMP180;56000;51.146;17.112;2023-04-25T00:41:37;99278.80;;;9.50
68952;BMP180;56000;51.146;17.112;2023-04-25T00:44:12;99275.20;;;9.50
68952;BMP180;56000;51.146;17.112;2023-04-25T00:46:48;99279.20;;;9.50
68952;BMP180;56000;51.146;17.112;2023-04-25T00:49:22;99281.40;;;9.50
68952;BMP180;56000;51.146;17.112;2023-04-25T00:51:55;99280.80;;;9.40
68952;BMP180;56000;51.146;17.112;2023-04-25T00:54:29;99282.40;;;9.40
68952;BMP180;56000;51.146;17.112;2023-04-25T00:57:02;99281.00;;;9.40
68952;BMP180;56000;51.146;17.112;2023-04-25T00:59:37;99281.40;;;9.40
68952;BMP180;56000;51.146;17.112;2023-04-25T01:02:10;99284.40;;;9.30
68952;BMP180;56000;51.146;17.112;2023-04-25T01:04:43;99280.00;;;9.30
68952;BMP180;56000;51.146;17.112;2023-04-25T01:07:17;99283.40;;;9.30
68952;BMP180;56000;51.146;17.112;2023-04-25T01:09:52;99276.60;;;9.30
68952;BMP180;56000;51.146;17.112;2023-04-25T01:12:26;99278.40;;;9.30
68952;BMP180;56000;51.146;17.112;2023-04-25T01:14:59;99278.80;;;9.30
68952;BMP180;56000;51.146;17.112;2023-04-25T01:17:32;99279.40;;;9.20
68952;BMP180;56000;51.146;17.112;2023-04-25T01:20:09;99284.40;;;9.20
68952;BMP180;56000;51.146;17.112;2023-04-25T01:22:43;99284.80;;;9.20
68952;BMP180;56000;51.146;17.112;2023-04-25T01:25:17;99289.40;;;9.20
68952;BMP180;56000;51.146;17.112;2023-04-25T01:27:50;99283.40;;;9.20
68952;BMP180;56000;51.146;17.112;2023-04-25T01:30:24;99284.00;;;9.20
68952;BMP180;56000;51.146;17.112;2023-04-25T01:32:59;99285.60;;;9.20
68952;BMP180;56000;51.146;17.112;2023-04-25T01:35:34;99288.80;;;9.20
68952;BMP180;56000;51.146;17.112;2023-04-25T01:38:07;99286.00;;;9.20
68952;BMP180;56000;51.146;17.112;2023-04-25T01:40:42;99289.40;;;9.20
68952;BMP180;56000;51.146;17.112;2023-04-25T01:43:17;99290.00;;;9.20
68952;BMP180;56000;51.146;17.112;2023-04-25T01:45:51;99296.60;;;9.20
68952;BMP180;56000;51.146;17.112;2023-04-25T01:48:24;99296.20;;;9.20
68952;BMP180;56000;51.146;17.112;2023-04-25T01:50:58;99292.00;;;9.20
68952;BMP180;56000;51.146;17.112;2023-04-25T01:53:32;99293.80;;;9.20
68952;BMP180;56000;51.146;17.112;2023-04-25T01:56:08;99291.40;;;9.20
68952;BMP180;56000;51.146;17.112;2023-04-25T01:58:42;99296.60;;;9.20
68952;BMP180;56000;51.146;17.112;2023-04-25T02:01:34;99299.80;;;9.10
68952;BMP180;56000;51.146;17.112;2023-04-25T02:04:16;99293.80;;;9.10
68952;BMP180;56000;51.146;17.112;2023-04-25T02:06:50;99297.80;;;9.10
68952;BMP180;56000;51.146;17.112;2023-04-25T02:09:23;99300.00;;;9.10
68952;BMP180;56000;51.146;17.112;2023-04-25T02:11:59;99305.20;;;9.00
68952;BMP180;56000;51.146;17.112;2023-04-25T02:14:54;99302.80;;;9.00
68952;BMP180;56000;51.146;17.112;2023-04-25T02:17:41;99310.20;;;9.00
68952;BMP180;56000;51.146;17.112;2023-04-25T02:20:17;99309.20;;;9.00
68952;BMP180;56000;51.146;17.112;2023-04-25T02:22:52;99305.00;;;8.90
68952;BMP180;56000;51.146;17.112;2023-04-25T02:25:26;99300.80;;;8.90
68952;BMP180;56000;51.146;17.112;2023-04-25T02:27:59;99298.40;;;8.84
68952;BMP180;56000;51.146;17.112;2023-04-25T02:30:33;99302.40;;;8.80
68952;BMP180;56000;51.146;17.112;2023-04-25T02:33:08;99293.40;;;8.80
68952;BMP180;56000;51.146;17.112;2023-04-25T02:35:42;99289.80;;;8.72
68952;BMP180;56000;51.146;17.112;2023-04-25T02:38:15;99285.20;;;8.70
68952;BMP180;56000;51.146;17.112;2023-04-25T02:40:48;99288.00;;;8.70
68952;BMP180;56000;51.146;17.112;2023-04-25T02:43:22;99291.80;;;8.60
68952;BMP180;56000;51.146;17.112;2023-04-25T02:45:56;99294.20;;;8.60
68952;BMP180;56000;51.146;17.112;2023-04-25T02:48:29;99294.20;;;8.56
68952;BMP180;56000;51.146;17.112;2023-04-25T02:51:02;99290.80;;;8.50
68952;BMP180;56000;51.146;17.112;2023-04-25T02:53:35;99292.00;;;8.50
68952;BMP180;56000;51.146;17.112;2023-04-25T02:56:09;99298.20;;;8.48
68952;BMP180;56000;51.146;17.112;2023-04-25T02:58:42;99302.60;;;8.40
68952;BMP180;56000;51.146;17.112;2023-04-25T03:01:16;99298.80;;;8.40
68952;BMP180;56000;51.146;17.112;2023-04-25T03:03:49;99299.00;;;8.40
68952;BMP180;56000;51.146;17.112;2023-04-25T03:06:22;99299.20;;;8.40
68952;BMP180;56000;51.146;17.112;2023-04-25T03:08:56;99295.60;;;8.30
68952;BMP180;56000;51.146;17.112;2023-04-25T03:11:29;99291.20;;;8.30
68952;BMP180;56000;51.146;17.112;2023-04-25T03:14:02;99293.20;;;8.30
68952;BMP180;56000;51.146;17.112;2023-04-25T03:16:36;99290.80;;;8.28
68952;BMP180;56000;51.146;17.112;2023-04-25T03:19:09;99285.80;;;8.20
68952;BMP180;56000;51.146;17.112;2023-04-25T03:21:42;99287.40;;;8.20
68952;BMP180;56000;51.146;17.112;2023-04-25T03:24:16;99289.60;;;8.20
68952;BMP180;56000;51.146;17.112;2023-04-25T03:26:49;99288.60;;;8.20
68952;BMP180;56000;51.146;17.112;2023-04-25T03:29:22;99290.40;;;8.20
68952;BMP180;56000;51.146;17.112;2023-04-25T03:31:58;99287.60;;;8.18
68952;BMP180;56000;51.146;17.112;2023-04-25T03:34:32;99288.60;;;8.14
68952;BMP180;56000;51.146;17.112;2023-04-25T03:37:05;99297.20;;;8.20
68952;BMP180;56000;51.146;17.112;2023-04-25T03:39:41;99300.80;;;8.20
68952;BMP180;56000;51.146;17.112;2023-04-25T03:42:14;99299.00;;;8.20
68952;BMP180;56000;51.146;17.112;2023-04-25T03:44:47;99306.00;;;8.20
68952;BMP180;56000;51.146;17.112;2023-04-25T03:47:21;99306.40;;;8.20
68952;BMP180;56000;51.146;17.112;2023-04-25T03:49:54;99307.20;;;8.20
68952;BMP180;56000;51.146;17.112;2023-04-25T03:52:27;99312.80;;;8.26
68952;BMP180;56000;51.146;17.112;2023-04-25T03:55:00;99312.00;;;8.30
68952;BMP180;56000;51.146;17.112;2023-04-25T03:57:33;99312.80;;;8.30
68952;BMP180;56000;51.146;17.112;2023-04-25T04:00:09;99316.20;;;8.32
68952;BMP180;56000;51.146;17.112;2023-04-25T04:02:45;99316.40;;;8.40
68952;BMP180;56000;51.146;17.112;2023-04-25T04:05:19;99318.20;;;8.40
68952;BMP180;56000;51.146;17.112;2023-04-25T04:07:57;99320.20;;;8.40
68952;BMP180;56000;51.146;17.112;2023-04-25T04:10:31;99322.20;;;8.50
68952;BMP180;56000;51.146;17.112;2023-04-25T04:13:04;99320.80;;;8.50
68952;BMP180;56000;51.146;17.112;2023-04-25T04:15:37;99318.80;;;8.50
68952;BMP180;56000;51.146;17.112;2023-04-25T04:18:11;99323.20;;;8.60
68952;BMP180;56000;51.146;17.112;2023-04-25T04:20:44;99326.00;;;8.60
68952;BMP180;56000;51.146;17.112;2023-04-25T04:23:17;99322.40;;;8.60
68952;BMP180;56000;51.146;17.112;2023-04-25T04:25:50;99329.40;;;8.70
68952;BMP180;56000;51.146;17.112;2023-04-25T04:28:43;99330.20;;;8.70
68952;BMP180;56000;51.146;17.112;2023-04-25T04:31:25;99329.60;;;8.70
68952;BMP180;56000;51.146;17.112;2023-04-25T04:33:58;99334.20;;;8.70
68952;BMP180;56000;51.146;17.112;2023-04-25T04:36:33;99329.80;;;8.80
68952;BMP180;56000;51.146;17.112;2023-04-25T04:39:09;99332.80;;;8.80
68952;BMP180;56000;51.146;17.112;2023-04-25T04:41:52;99331.20;;;8.80
68952;BMP180;56000;51.146;17.112;2023-04-25T04:44:42;99330.60;;;8.90
68952;BMP180;56000;51.146;17.112;2023-04-25T04:47:48;99338.40;;;9.00
68952;BMP180;56000;51.146;17.112;2023-04-25T04:50:40;99337.40;;;9.00
68952;BMP180;56000;51.146;17.112;2023-04-25T04:53:36;99337.60;;;9.10
68952;BMP180;56000;51.146;17.112;2023-04-25T04:56:18;99340.60;;;9.16
68952;BMP180;56000;51.146;17.112;2023-04-25T04:58:59;99335.80;;;9.26
68952;BMP180;56000;51.146;17.112;2023-04-25T05:01:46;99337.00;;;9.32
68952;BMP180;56000;51.146;17.112;2023-04-25T05:04:19;99341.20;;;9.40
68952;BMP180;56000;51.146;17.112;2023-04-25T05:07:28;99337.40;;;9.50
68952;BMP180;56000;51.146;17.112;2023-04-25T05:10:25;99337.40;;;9.60
68952;BMP180;56000;51.146;17.112;2023-04-25T05:13:22;99344.40;;;9.70
68952;BMP180;56000;51.146;17.112;2023-04-25T05:16:23;99339.20;;;9.80
68952;BMP180;56000;51.146;17.112;2023-04-25T05:19:16;99336.60;;;9.90
68952;BMP180;56000;51.146;17.112;2023-04-25T05:22:12;99336.00;;;10.02
68952;BMP180;56000;51.146;17.112;2023-04-25T05:25:00;99334.20;;;10.20
68952;BMP180;56000;51.146;17.112;2023-04-25T05:27:51;99336.00;;;10.30
68952;BMP180;56000;51.146;17.112;2023-04-25T05:30:35;99332.20;;;10.40
68952;BMP180;56000;51.146;17.112;2023-04-25T05:33:15;99342.20;;;10.46
68952;BMP180;56000;51.146;17.112;2023-04-25T05:35:49;99335.20;;;10.42
68952;BMP180;56000;51.146;17.112;2023-04-25T05:38:22;99334.40;;;10.40
68952;BMP180;56000;51.146;17.112;2023-04-25T05:41:33;99329.20;;;10.40
68952;BMP180;56000;51.146;17.112;2023-04-25T05:44:26;99335.20;;;10.40
68952;BMP180;56000;51.146;17.112;2023-04-25T05:47:18;99330.20;;;10.40
68952;BMP180;56000;51.146;17.112;2023-04-25T05:50:06;99338.60;;;10.40
68952;BMP180;56000;51.146;17.112;2023-04-25T05:52:53;99332.20;;;10.40
68952;BMP180;56000;51.146;17.112;2023-04-25T05:55:46;99331.40;;;10.40
68952;BMP180;56000;51.146;17.112;2023-04-25T05:58:28;99330.40;;;10.40
68952;BMP180;56000;51.146;17.112;2023-04-25T06:01:03;99338.40;;;10.50
68952;BMP180;56000;51.146;17.112;2023-04-25T06:03:36;99334.60;;;10.50
68952;BMP180;56000;51.146;17.112;2023-04-25T06:06:10;99332.00;;;10.50
68952;BMP180;56000;51.146;17.112;2023-04-25T06:08:44;99332.20;;;10.60
68952;BMP180;56000;51.146;17.112;2023-04-25T06:11:19;99333.60;;;10.68
68952;BMP180;56000;51.146;17.112;2023-04-25T06:13:52;99331.40;;;10.72
68952;BMP180;56000;51.146;17.112;2023-04-25T06:16:25;99338.80;;;10.82
68952;BMP180;56000;51.146;17.112;2023-04-25T06:18:58;99334.80;;;10.94
68952;BMP180;56000;51.146;17.112;2023-04-25T06:21:31;99330.80;;;11.00
68952;BMP180;56000;51.146;17.112;2023-04-25T06:24:05;99331.80;;;11.16
68952;BMP180;56000;51.146;17.112;2023-04-25T06:26:39;99327.80;;;11.20
68952;BMP180;56000;51.146;17.112;2023-04-25T06:29:12;99329.40;;;11.30
68952;BMP180;56000;51.146;17.112;2023-04-25T06:31:45;99330.40;;;11.30
68952;BMP180;56000;51.146;17.112;2023-04-25T06:34:18;99328.60;;;11.40
68952;BMP180;56000;51.146;17.112;2023-04-25T06:36:52;99331.80;;;11.50
68952;BMP180;56000;51.146;17.112;2023-04-25T06:39:25;99330.80;;;11.60
68952;BMP180;56000;51.146;17.112;2023-04-25T06:41:59;99330.80;;;11.80
68952;BMP180;56000;51.146;17.112;2023-04-25T06:44:45;99328.80;;;11.94
68952;BMP180;56000;51.146;17.112;2023-04-25T06:47:18;99328.80;;;12.10
68952;BMP180;56000;51.146;17.112;2023-04-25T06:49:52;99332.60;;;12.28
68952;BMP180;56000;51.146;17.112;2023-04-25T06:52:25;99328.40;;;12.40
68952;BMP180;56000;51.146;17.112;2023-04-25T06:54:59;99328.40;;;12.48
68952;BMP180;56000;51.146;17.112;2023-04-25T06:57:41;99326.00;;;12.40
68952;BMP180;56000;51.146;17.112;2023-04-25T07:00:34;99322.80;;;12.50
68952;BMP180;56000;51.146;17.112;2023-04-25T07:03:07;99324.80;;;12.56
68952;BMP180;56000;51.146;17.112;2023-04-25T07:05:41;99324.60;;;12.60
68952;BMP180;56000;51.146;17.112;2023-04-25T07:08:15;99317.20;;;12.64
68952;BMP180;56000;51.146;17.112;2023-04-25T07:10:48;99319.80;;;12.70
68952;BMP180;56000;51.146;17.112;2023-04-25T07:13:21;99320.00;;;12.70
68952;BMP180;56000;51.146;17.112;2023-04-25T07:15:54;99318.60;;;12.70
68952;BMP180;56000;51.146;17.112;2023-04-25T07:18:28;99313.00;;;12.70
68952;BMP180;56000;51.146;17.112;2023-04-25T07:21:02;99315.80;;;12.70
68952;BMP180;56000;51.146;17.112;2023-04-25T07:23:36;99315.20;;;12.80
68952;BMP180;56000;51.146;17.112;2023-04-25T07:26:15;99317.00;;;12.90
68952;BMP180;56000;51.146;17.112;2023-04-25T07:29:08;99319.80;;;13.00
68952;BMP180;56000;51.146;17.112;2023-04-25T07:31:41;99317.80;;;13.10
68952;BMP180;56000;51.146;17.112;2023-04-25T07:34:14;99312.20;;;13.20
68952;BMP180;56000;51.146;17.112;2023-04-25T07:36:48;99319.40;;;13.40
68952;BMP180;56000;51.146;17.112;2023-04-25T07:39:21;99315.20;;;13.50
68952;BMP180;56000;51.146;17.112;2023-04-25T07:41:55;99314.20;;;13.50
68952;BMP180;56000;51.146;17.112;2023-04-25T07:44:34;99325.00;;;13.50
68952;BMP180;56000;51.146;17.112;2023-04-25T07:47:11;99321.80;;;13.50
68952;BMP180;56000;51.146;17.112;2023-04-25T07:49:45;99316.00;;;13.50
68952;BMP180;56000;51.146;17.112;2023-04-25T07:52:18;99322.60;;;13.50
68952;BMP180;56000;51.146;17.112;2023-04-25T07:54:55;99316.00;;;13.50
68952;BMP180;56000;51.146;17.112;2023-04-25T07:57:36;99320.20;;;13.54
68952;BMP180;56000;51.146;17.112;2023-04-25T08:00:12;99321.80;;;13.70
68952;BMP180;56000;51.146;17.112;2023-04-25T08:02:49;99319.20;;;14.00
68952;BMP180;56000;51.146;17.112;2023-04-25T08:05:23;99317.40;;;14.20
68952;BMP180;56000;51.146;17.112;2023-04-25T08:08:03;99318.60;;;14.40
68952;BMP180;56000;51.146;17.112;2023-04-25T08:10:37;99321.40;;;14.54
68952;BMP180;56000;51.146;17.112;2023-04-25T08:13:11;99313.40;;;14.60
68952;BMP180;56000;51.146;17.112;2023-04-25T08:15:45;99318.80;;;14.50
68952;BMP180;56000;51.146;17.112;2023-04-25T08:18:18;99319.00;;;14.50
68952;BMP180;56000;51.146;17.112;2023-04-25T08:20:51;99319.40;;;14.58
68952;BMP180;56000;51.146;17.112;2023-04-25T08:23:25;99320.40;;;14.62
68952;BMP180;56000;51.146;17.112;2023-04-25T08:26:07;99327.80;;;14.80
68952;BMP180;56000;51.146;17.112;2023-04-25T08:28:41;99327.00;;;14.90
68952;BMP180;56000;51.146;17.112;2023-04-25T08:31:15;99330.00;;;14.90
68952;BMP180;56000;51.146;17.112;2023-04-25T08:33:56;99327.60;;;14.80
68952;BMP180;56000;51.146;17.112;2023-04-25T08:36:42;99331.40;;;14.68
68952;BMP180;56000;51.146;17.112;2023-04-25T08:39:23;99339.60;;;14.40
68952;BMP180;56000;51.146;17.112;2023-04-25T08:42:32;99328.80;;;14.10
68952;BMP180;56000;51.146;17.112;2023-04-25T08:45:09;99340.40;;;13.96
68952;BMP180;56000;51.146;17.112;2023-04-25T08:47:44;99340.60;;;13.78
68952;BMP180;56000;51.146;17.112;2023-04-25T08:50:21;99344.40;;;13.70
68952;BMP180;56000;51.146;17.112;2023-04-25T08:52:59;99341.60;;;13.70
68952;BMP180;56000;51.146;17.112;2023-04-25T08:55:37;99339.80;;;13.78
68952;BMP180;56000;51.146;17.112;2023-04-25T08:58:14;99337.60;;;13.90
68952;BMP180;56000;51.146;17.112;2023-04-25T09:00:49;99332.40;;;13.90
68952;BMP180;56000;51.146;17.112;2023-04-25T09:03:23;99337.60;;;13.90
68952;BMP180;56000;51.146;17.112;2023-04-25T09:06:03;99341.20;;;13.90
68952;BMP180;56000;51.146;17.112;2023-04-25T09:08:40;99345.80;;;14.10
68952;BMP180;56000;51.146;17.112;2023-04-25T09:11:14;99345.40;;;14.30
68952;BMP180;56000;51.146;17.112;2023-04-25T09:13:49;99345.80;;;14.40
68952;BMP180;56000;51.146;17.112;2023-04-25T09:16:27;99348.60;;;14.60
68952;BMP180;56000;51.146;17.112;2023-04-25T09:19:26;99347.00;;;14.72
68952;BMP180;56000;51.146;17.112;2023-04-25T09:26:43;99340.40;;;15.80
68952;BMP180;56000;51.146;17.112;2023-04-25T09:29:16;99342.40;;;15.70
68952;BMP180;56000;51.146;17.112;2023-04-25T09:31:49;99344.40;;;15.48
68952;BMP180;56000;51.146;17.112;2023-04-25T09:34:23;99342.20;;;15.10
68952;BMP180;56000;51.146;17.112;2023-04-25T09:37:02;99354.60;;;14.80
68952;BMP180;56000;51.146;17.112;2023-04-25T09:39:57;99350.20;;;14.50
68952;BMP180;56000;51.146;17.112;2023-04-25T09:42:33;99350.80;;;14.76
68952;BMP180;56000;51.146;17.112;2023-04-25T09:45:09;99355.80;;;15.40
68952;BMP180;56000;51.146;17.112;2023-04-25T09:47:45;99351.80;;;15.50
68952;BMP180;56000;51.146;17.112;2023-04-25T09:50:20;99355.40;;;15.50
68952;BMP180;56000;51.146;17.112;2023-04-25T09:53:07;99359.80;;;15.60
68952;BMP180;56000;51.146;17.112;2023-04-25T09:56:09;99353.00;;;15.50
68952;BMP180;56000;51.146;17.112;2023-04-25T09:58:43;99356.00;;;15.54
68952;BMP180;56000;51.146;17.112;2023-04-25T10:01:17;99357.00;;;15.60
68952;BMP180;56000;51.146;17.112;2023-04-25T10:04:00;99365.20;;;15.88
68952;BMP180;56000;51.146;17.112;2023-04-25T10:06:45;99362.60;;;16.52
68952;BMP180;56000;51.146;17.112;2023-04-25T10:11:54;99357.60;;;18.90
68952;BMP180;56000;51.146;17.112;2023-04-25T10:14:28;99362.20;;;19.20
68952;BMP180;56000;51.146;17.112;2023-04-25T10:17:02;99354.80;;;18.96
68952;BMP180;56000;51.146;17.112;2023-04-25T10:19:35;99352.00;;;18.64
68952;BMP180;56000;51.146;17.112;2023-04-25T10:22:14;99350.80;;;18.20
68952;BMP180;56000;51.146;17.112;2023-04-25T10:24:50;99355.60;;;17.90
68952;BMP180;56000;51.146;17.112;2023-04-25T10:27:24;99351.80;;;17.78
68952;BMP180;56000;51.146;17.112;2023-04-25T10:30:08;99349.40;;;17.64
68952;BMP180;56000;51.146;17.112;2023-04-25T10:32:44;99350.20;;;17.50
68952;BMP180;56000;51.146;17.112;2023-04-25T10:35:24;99351.20;;;17.32
68952;BMP180;56000;51.146;17.112;2023-04-25T10:38:15;99349.20;;;17.02
68952;BMP180;56000;51.146;17.112;2023-04-25T10:41:06;99347.60;;;16.80
68952;BMP180;56000;51.146;17.112;2023-04-25T10:43:42;99350.40;;;16.60
68952;BMP180;56000;51.146;17.112;2023-04-25T10:46:22;99350.40;;;16.50
68952;BMP180;56000;51.146;17.112;2023-04-25T10:48:57;99347.40;;;16.72
68952;BMP180;56000;51.146;17.112;2023-04-25T10:51:31;99339.20;;;16.80
68952;BMP180;56000;51.146;17.112;2023-04-25T10:54:25;99343.60;;;16.60
68952;BMP180;56000;51.146;17.112;2023-04-25T10:56:59;99349.00;;;16.50
68952;BMP180;56000;51.146;17.112;2023-04-25T10:59:33;99347.60;;;16.64
68952;BMP180;56000;51.146;17.112;2023-04-25T11:02:14;99345.40;;;17.00
68952;BMP180;56000;51.146;17.112;2023-04-25T11:04:47;99332.80;;;17.48
68952;BMP180;56000;51.146;17.112;2023-04-25T11:07:31;99337.00;;;17.60
68952;BMP180;56000;51.146;17.112;2023-04-25T11:10:08;99329.40;;;17.56
68952;BMP180;56000;51.146;17.112;2023-04-25T11:12:41;99328.60;;;17.80
68952;BMP180;56000;51.146;17.112;2023-04-25T11:15:14;99327.20;;;19.00
68952;BMP180;56000;51.146;17.112;2023-04-25T11:17:47;99326.80;;;20.48
68952;BMP180;56000;51.146;17.112;2023-04-25T11:20:24;99330.20;;;21.22
68952;BMP180;56000;51.146;17.112;2023-04-25T11:23:01;99326.80;;;21.80
68952;BMP180;56000;51.146;17.112;2023-04-25T11:25:39;99327.80;;;22.00
68952;BMP180;56000;51.146;17.112;2023-04-25T11:28:13;99325.00;;;21.88
68952;BMP180;56000;51.146;17.112;2023-04-25T11:30:53;99329.20;;;21.44
68952;BMP180;56000;51.146;17.112;2023-04-25T11:33:27;99326.80;;;20.82
68952;BMP180;56000;51.146;17.112;2023-04-25T11:36:01;99333.40;;;20.26
68952;BMP180;56000;51.146;17.112;2023-04-25T11:38:35;99336.60;;;19.84
68952;BMP180;56000;51.146;17.112;2023-04-25T11:41:08;99335.80;;;19.32
68952;BMP180;56000;51.146;17.112;2023-04-25T11:43:41;99337.00;;;18.84
68952;BMP180;56000;51.146;17.112;2023-04-25T11:46:15;99335.60;;;18.02
68952;BMP180;56000;51.146;17.112;2023-04-25T11:48:49;99340.20;;;17.40
68952;BMP180;56000;51.146;17.112;2023-04-25T11:51:23;99341.80;;;16.92
68952;BMP180;56000;51.146;17.112;2023-04-25T11:53:57;99344.60;;;16.60
68952;BMP180;56000;51.146;17.112;2023-04-25T11:56:30;99349.20;;;16.40
68952;BMP180;56000;51.146;17.112;2023-04-25T11:59:05;99351.60;;;16.20
68952;BMP180;56000;51.146;17.112;2023-04-25T12:01:40;99350.40;;;15.92
68952;BMP180;56000;51.146;17.112;2023-04-25T12:04:17;99349.20;;;15.60
68952;BMP180;56000;51.146;17.112;2023-04-25T12:06:52;99350.00;;;15.50
68952;BMP180;56000;51.146;17.112;2023-04-25T12:09:31;99344.20;;;15.80
68952;BMP180;56000;51.146;17.112;2023-04-25T12:12:05;99344.00;;;16.18
68952;BMP180;56000;51.146;17.112;2023-04-25T12:14:47;99341.00;;;16.70
68952;BMP180;56000;51.146;17.112;2023-04-25T12:17:21;99336.80;;;17.00
68952;BMP180;56000;51.146;17.112;2023-04-25T12:19:55;99343.40;;;17.38
68952;BMP180;56000;51.146;17.112;2023-04-25T12:22:29;99344.80;;;17.62
68952;BMP180;56000;51.146;17.112;2023-04-25T12:25:03;99350.20;;;17.40
68952;BMP180;56000;51.146;17.112;2023-04-25T12:27:37;99350.00;;;17.10
68952;BMP180;56000;51.146;17.112;2023-04-25T12:30:13;99355.00;;;16.90
68952;BMP180;56000;51.146;17.112;2023-04-25T12:32:47;99354.60;;;16.72
68952;BMP180;56000;51.146;17.112;2023-04-25T12:35:20;99356.40;;;16.70
68952;BMP180;56000;51.146;17.112;2023-04-25T12:37:54;99356.60;;;16.60
68952;BMP180;56000;51.146;17.112;2023-04-25T12:40:28;99355.60;;;16.70
68952;BMP180;56000;51.146;17.112;2023-04-25T12:43:01;99360.00;;;16.80
68952;BMP180;56000;51.146;17.112;2023-04-25T12:45:34;99361.80;;;16.70
68952;BMP180;56000;51.146;17.112;2023-04-25T12:48:08;99364.40;;;16.70
68952;BMP180;56000;51.146;17.112;2023-04-25T12:50:41;99367.40;;;16.60
68952;BMP180;56000;51.146;17.112;2023-04-25T12:53:15;99359.00;;;16.30
68952;BMP180;56000;51.146;17.112;2023-04-25T12:55:48;99364.20;;;16.20
68952;BMP180;56000;51.146;17.112;2023-04-25T12:58:22;99355.20;;;16.18
68952;BMP180;56000;51.146;17.112;2023-04-25T13:00:56;99355.80;;;16.00
68952;BMP180;56000;51.146;17.112;2023-04-25T13:03:30;99353.60;;;15.90
68952;BMP180;56000;51.146;17.112;2023-04-25T13:06:04;99354.40;;;15.84
68952;BMP180;56000;51.146;17.112;2023-04-25T13:08:37;99354.80;;;15.90
68952;BMP180;56000;51.146;17.112;2023-04-25T13:11:10;99357.60;;;16.00
68952;BMP180;56000;51.146;17.112;2023-04-25T13:13:44;99356.40;;;16.10
68952;BMP180;56000;51.146;17.112;2023-04-25T13:16:18;99359.40;;;16.20
68952;BMP180;56000;51.146;17.112;2023-04-25T13:18:52;99354.80;;;16.50
68952;BMP180;56000;51.146;17.112;2023-04-25T13:21:29;99334.80;;;17.68
68952;BMP180;56000;51.146;17.112;2023-04-25T13:24:04;99339.00;;;20.82
68952;BMP180;56000;51.146;17.112;2023-04-25T13:26:37;99352.60;;;23.68
68952;BMP180;56000;51.146;17.112;2023-04-25T13:29:10;99355.20;;;23.24
68952;BMP180;56000;51.146;17.112;2023-04-25T13:31:43;99356.00;;;22.06
68952;BMP180;56000;51.146;17.112;2023-04-25T13:34:17;99355.80;;;20.86
68952;BMP180;56000;51.146;17.112;2023-04-25T13:36:50;99354.00;;;19.78
68952;BMP180;56000;51.146;17.112;2023-04-25T13:39:23;99357.00;;;18.66
68952;BMP180;56000;51.146;17.112;2023-04-25T13:41:59;99360.40;;;17.92
68952;BMP180;56000;51.146;17.112;2023-04-25T13:44:33;99361.60;;;17.40
68952;BMP180;56000;51.146;17.112;2023-04-25T13:47:07;99361.40;;;16.90
68952;BMP180;56000;51.146;17.112;2023-04-25T13:49:40;99363.40;;;16.40
68952;BMP180;56000;51.146;17.112;2023-04-25T13:52:14;99370.80;;;15.96
68952;BMP180;56000;51.146;17.112;2023-04-25T13:54:47;99366.00;;;15.64
68952;BMP180;56000;51.146;17.112;2023-04-25T13:57:20;99374.20;;;15.40
68952;BMP180;56000;51.146;17.112;2023-04-25T13:59:54;99368.40;;;15.36
68952;BMP180;56000;51.146;17.112;2023-04-25T14:02:27;99373.00;;;15.40
68952;BMP180;56000;51.146;17.112;2023-04-25T14:05:00;99373.40;;;15.70
68952;BMP180;56000;51.146;17.112;2023-04-25T14:07:36;99370.20;;;16.04
68952;BMP180;56000;51.146;17.112;2023-04-25T14:10:10;99364.40;;;17.18
68952;BMP180;56000;51.146;17.112;2023-04-25T14:12:44;99364.00;;;18.02
68952;BMP180;56000;51.146;17.112;2023-04-25T14:15:17;99363.40;;;18.10
68952;BMP180;56000;51.146;17.112;2023-04-25T14:17:50;99369.40;;;18.00
68952;BMP180;56000;51.146;17.112;2023-04-25T14:20:24;99373.40;;;17.66
68952;BMP180;56000;51.146;17.112;2023-04-25T14:22:58;99367.20;;;17.08
68952;BMP180;56000;51.146;17.112;2023-04-25T14:25:32;99370.40;;;16.70
68952;BMP180;56000;51.146;17.112;2023-04-25T14:28:05;99377.40;;;16.30
68952;BMP180;56000;51.146;17.112;2023-04-25T14:30:39;99376.40;;;16.00
68952;BMP180;56000;51.146;17.112;2023-04-25T14:33:12;99377.20;;;16.92
68952;BMP180;56000;51.146;17.112;2023-04-25T14:35:45;99377.20;;;17.40
68952;BMP180;56000;51.146;17.112;2023-04-25T14:38:19;99384.60;;;17.20
68952;BMP180;56000;51.146;17.112;2023-04-25T14:40:54;99385.80;;;16.82
68952;BMP180;56000;51.146;17.112;2023-04-25T14:43:28;99391.60;;;16.30
68952;BMP180;56000;51.146;17.112;2023-04-25T14:46:01;99395.40;;;15.84
68952;BMP180;56000;51.146;17.112;2023-04-25T14:48:35;99391.40;;;15.32
68952;BMP180;56000;51.146;17.112;2023-04-25T14:51:09;99403.00;;;14.84
68952;BMP180;56000;51.146;17.112;2023-04-25T14:53:43;99411.60;;;14.48
68952;BMP180;56000;51.146;17.112;2023-04-25T14:56:16;99406.40;;;14.20
68952;BMP180;56000;51.146;17.112;2023-04-25T14:58:50;99417.60;;;13.90
68952;BMP180;56000;51.146;17.112;2023-04-25T15:01:23;99418.60;;;13.70